X  Sluiten METAR luchtvaart weer gegevens      KRYV Watertown Municipal Airport
Temperatuur
57°F Temperatuur
32°F Dauwpunt
39% Vochtigheid



Wind
12 MPH
19 KM/U
5 M/S
10 KTS



280°
West
Huidig weer

Helder Helder
Luchtdruk 1015.92 (hPa) - 30 (inHg)
Zicht 9.9 (mijl) - 16 (km)
Vliegveld
Vliegveld code KRYV

Locatie : Watertown Municipal Airport
Afstand: 8 (mi)

Metar:
KRYV 162235Z AUTO 28010G16KT 10SM CLR 14/00 A3000 RMK AO2 T01350000

Tijd: 16-10-2021 17:35 CDT